Time;durP1;ratioP1;P1;durP2;ratioP2;P2;SDS_P1;SDS_P2;PMS_P1;PMS_P2;Temp;Humidity;BMP_temperature;BMP_pressure;BME280_temperature;BME280_humidity;BME280_pressure;Samples;Min_cycle;Max_cycle;Signal;HPM_P1;HPM_P2
2022/07/13 00:00:47;;;;;;;3.20;1.60;;;;;;;11.06;100.00;93901.31;2091949;28;20508;-81
2022/07/13 00:01:48;;;;;;;1.55;1.20;;;;;;;11.02;100.00;93904.06;2103096;28;20024;-81
2022/07/13 00:02:49;;;;;;;6.32;1.60;;;;;;;11.12;100.00;93907.03;2106553;28;20035;-80
2022/07/13 00:03:50;;;;;;;1.40;1.20;;;;;;;11.17;100.00;93901.22;2096990;28;20024;-80
2022/07/13 00:05:00;;;;;;;1.10;1.00;;;;;;;11.10;100.00;93908.16;2087071;28;20018;-80
2022/07/13 00:06:01;;;;;;;1.50;1.20;;;;;;;11.03;100.00;93902.16;2100797;28;20036;-81
2022/07/13 00:07:02;;;;;;;2.88;1.20;;;;;;;11.12;100.00;93896.31;2113327;28;20028;-80
2022/07/13 00:08:03;;;;;;;2.00;1.30;;;;;;;11.05;100.00;93905.94;2101283;28;20024;-80
2022/07/13 00:09:04;;;;;;;1.88;1.50;;;;;;;11.10;100.00;93902.06;2103614;28;20089;-80
2022/07/13 00:10:05;;;;;;;2.00;1.30;;;;;;;11.12;100.00;93905.09;2106439;28;20020;-80
2022/07/13 00:11:06;;;;;;;1.92;1.38;;;;;;;10.89;100.00;93910.28;2092180;28;20024;-80
2022/07/13 00:12:08;;;;;;;1.38;1.23;;;;;;;10.93;100.00;93903.78;2097042;28;20020;-80
2022/07/13 00:13:09;;;;;;;1.75;1.40;;;;;;;10.91;100.00;93906.09;2089865;28;20033;-80
2022/07/13 00:14:10;;;;;;;2.95;1.25;;;;;;;10.99;100.00;93896.06;2101893;28;20074;-81
2022/07/13 00:15:11;;;;;;;2.55;1.30;;;;;;;10.90;100.00;93909.91;2097971;28;20036;-81
2022/07/13 00:16:12;;;;;;;2.10;1.10;;;;;;;10.86;100.00;93901.16;2096617;28;20024;-80
2022/07/13 00:17:13;;;;;;;1.50;1.30;;;;;;;10.92;100.00;93902.25;2107886;28;20373;-80
2022/07/13 00:18:14;;;;;;;2.38;1.40;;;;;;;10.96;100.00;93896.88;2113941;28;20026;-80
2022/07/13 00:19:15;;;;;;;1.42;1.33;;;;;;;10.92;100.00;93898.81;2106306;28;20026;-81
2022/07/13 00:20:17;;;;;;;2.75;1.50;;;;;;;10.79;100.00;93893.97;2106325;28;20043;-81
2022/07/13 00:21:18;;;;;;;4.70;1.20;;;;;;;10.84;100.00;93892.78;2098734;28;20477;-80
2022/07/13 00:22:19;;;;;;;2.97;1.30;;;;;;;10.91;100.00;93883.94;2101458;28;20028;-80
2022/07/13 00:23:20;;;;;;;1.58;1.15;;;;;;;10.80;100.00;93882.13;2100887;28;20028;-80
2022/07/13 00:24:21;;;;;;;2.92;1.50;;;;;;;10.60;100.00;93891.88;2112249;28;20051;-80
2022/07/13 00:25:22;;;;;;;2.30;1.42;;;;;;;10.70;100.00;93888.31;2103271;28;20024;-80
2022/07/13 00:26:24;;;;;;;1.67;1.20;;;;;;;10.78;100.00;93891.69;2099648;28;20020;-80
2022/07/13 00:27:26;;;;;;;4.53;1.35;;;;;;;10.78;100.00;93889.03;2105554;28;20024;-80
2022/07/13 00:28:27;;;;;;;2.47;1.35;;;;;;;10.81;100.00;93891.66;2106078;28;20053;-80
2022/07/13 00:29:28;;;;;;;2.45;1.50;;;;;;;10.86;100.00;93887.81;2103774;28;20042;-80
2022/07/13 00:30:29;;;;;;;1.90;1.30;;;;;;;10.84;100.00;93879.41;2105566;28;20054;-81
2022/07/13 00:31:30;;;;;;;1.75;1.20;;;;;;;10.93;100.00;93890.41;2104595;28;20523;-80
2022/07/13 00:32:31;;;;;;;2.42;1.30;;;;;;;10.87;100.00;93891.22;2106162;28;20020;-80
2022/07/13 00:33:32;;;;;;;6.60;1.42;;;;;;;10.99;100.00;93885.38;2098807;28;20060;-81
2022/07/13 00:34:33;;;;;;;1.40;1.30;;;;;;;10.99;100.00;93882.69;2101920;28;20031;-80
2022/07/13 00:35:34;;;;;;;2.72;1.70;;;;;;;11.07;100.00;93886.81;2106006;28;20158;-80
2022/07/13 00:36:37;;;;;;;4.32;1.80;;;;;;;10.96;100.00;93886.16;2106158;28;20058;-80
2022/07/13 00:37:38;;;;;;;3.58;1.30;;;;;;;10.90;100.00;93880.50;2113607;28;20024;-80
2022/07/13 00:38:39;;;;;;;1.63;1.20;;;;;;;10.93;100.00;93876.25;2094452;28;20544;-80
2022/07/13 00:39:40;;;;;;;2.10;1.30;;;;;;;10.82;100.00;93881.72;2082784;28;20025;-80
2022/07/13 00:40:41;;;;;;;2.58;1.23;;;;;;;10.71;100.00;93886.41;2092365;28;20025;-80
2022/07/13 00:41:46;;;;;;;1.65;1.30;;;;;;;10.67;100.00;93885.69;2097879;28;20025;-80
2022/07/13 00:42:48;;;;;;;2.40;1.20;;;;;;;10.70;100.00;93882.97;2103172;28;20027;-80
2022/07/13 00:43:49;;;;;;;2.17;1.50;;;;;;;10.76;100.00;93884.09;2096194;28;20690;-80
2022/07/13 00:44:50;;;;;;;1.60;1.40;;;;;;;10.61;100.00;93881.94;2098734;28;20021;-80
2022/07/13 00:45:52;;;;;;;1.58;1.38;;;;;;;10.56;100.00;93875.84;2105997;28;20385;-80
2022/07/13 00:46:54;;;;;;;2.65;1.30;;;;;;;10.62;100.00;93876.19;2090983;28;20025;-81
2022/07/13 00:47:57;;;;;;;2.75;1.30;;;;;;;10.63;100.00;93883.06;2106491;28;20042;-80
2022/07/13 00:49:00;;;;;;;5.82;1.45;;;;;;;10.57;100.00;93877.38;2092969;28;20574;-80
2022/07/13 00:50:06;;;;;;;5.55;1.88;;;;;;;10.61;100.00;93882.69;2089868;28;20487;-80
2022/07/13 00:51:07;;;;;;;2.25;1.45;;;;;;;10.57;100.00;93880.03;2098351;28;20032;-80
2022/07/13 00:52:09;;;;;;;1.40;1.20;;;;;;;10.53;100.00;93881.22;2101336;28;20020;-80
2022/07/13 00:53:10;;;;;;;2.08;1.00;;;;;;;10.51;100.00;93886.97;2106245;28;20990;-80
2022/07/13 00:54:12;;;;;;;3.40;1.55;;;;;;;10.44;100.00;93883.59;2104950;28;20358;-80
2022/07/13 00:55:13;;;;;;;2.13;1.30;;;;;;;10.40;100.00;93878.28;2093953;28;20108;-80
2022/07/13 00:56:15;;;;;;;1.90;1.50;;;;;;;10.37;100.00;93879.09;2093867;28;20074;-81
2022/07/13 00:57:17;;;;;;;2.22;1.52;;;;;;;10.30;100.00;93879.16;2101515;28;20059;-80
2022/07/13 00:58:18;;;;;;;2.80;1.45;;;;;;;10.41;100.00;93881.75;2106182;28;20046;-80
2022/07/13 00:59:19;;;;;;;1.75;1.27;;;;;;;10.44;100.00;93880.94;2106201;28;20024;-80
2022/07/13 01:00:20;;;;;;;1.67;1.25;;;;;;;10.44;100.00;93886.28;2099845;28;20023;-80
2022/07/13 01:01:21;;;;;;;1.52;1.20;;;;;;;10.35;100.00;93884.06;2097838;28;20028;-80
2022/07/13 01:02:22;;;;;;;2.58;1.27;;;;;;;10.18;100.00;93877.69;2108004;28;20023;-80
2022/07/13 01:03:23;;;;;;;2.15;1.20;;;;;;;10.26;100.00;93876.50;2105899;28;20043;-80
2022/07/13 01:04:24;;;;;;;3.92;1.48;;;;;;;10.32;100.00;93879.53;2092931;28;20025;-80
2022/07/13 01:05:25;;;;;;;5.28;1.67;;;;;;;10.15;100.00;93877.72;2098518;28;20468;-80
2022/07/13 01:06:26;;;;;;;2.30;1.50;;;;;;;10.20;100.00;93874.63;2097628;28;20119;-80
2022/07/13 01:07:38;;;;;;;3.10;1.13;;;;;;;10.19;100.00;93881.13;2110412;28;20023;-80
2022/07/13 01:08:39;;;;;;;2.50;1.60;;;;;;;10.18;100.00;93876.91;2103399;28;20032;-80
2022/07/13 01:09:41;;;;;;;1.90;1.20;;;;;;;10.23;100.00;93874.59;2099224;28;20020;-80
2022/07/13 01:10:42;;;;;;;2.47;1.52;;;;;;;10.22;100.00;93872.31;2110864;28;20027;-80
2022/07/13 01:11:43;;;;;;;1.83;1.48;;;;;;;10.17;100.00;93873.50;2105074;28;20024;-80
2022/07/13 01:12:44;;;;;;;1.98;1.45;;;;;;;10.18;100.00;93866.22;2112687;28;20026;-81
2022/07/13 01:13:45;;;;;;;1.85;1.50;;;;;;;10.26;100.00;93873.06;2102964;28;20443;-81
2022/07/13 01:14:47;;;;;;;1.67;1.20;;;;;;;10.29;100.00;93881.06;2110237;28;20050;-81
2022/07/13 01:15:48;;;;;;;1.48;1.38;;;;;;;10.27;100.00;93875.38;2105766;28;20027;-81
2022/07/13 01:16:49;;;;;;;1.50;1.10;;;;;;;10.25;100.00;93868.88;2103766;28;20487;-81
2022/07/13 01:17:50;;;;;;;1.40;1.20;;;;;;;10.21;100.00;93868.88;2100985;28;20023;-81
2022/07/13 01:18:51;;;;;;;2.00;1.45;;;;;;;10.12;100.00;93873.16;2106076;28;20395;-81
2022/07/13 01:19:54;;;;;;;2.50;1.42;;;;;;;10.08;100.00;93868.59;2101586;28;20028;-81
2022/07/13 01:20:55;;;;;;;2.35;1.60;;;;;;;10.20;100.00;93861.28;2103349;28;20102;-81
2022/07/13 01:21:59;;;;;;;1.83;1.40;;;;;;;10.10;100.00;93865.56;2097404;28;20043;-80
2022/07/13 01:23:11;;;;;;;1.50;1.33;;;;;;;10.16;100.00;93865.88;2086095;28;20584;-80
2022/07/13 01:24:12;;;;;;;2.80;1.45;;;;;;;10.05;100.00;93861.38;2100354;28;20420;-80
2022/07/13 01:25:15;;;;;;;1.45;1.35;;;;;;;10.00;100.00;93866.38;2100975;28;20016;-80
2022/07/13 01:26:16;;;;;;;3.63;1.48;;;;;;;10.06;100.00;93865.56;2089535;28;20045;-81
2022/07/13 01:27:18;;;;;;;1.45;1.15;;;;;;;10.04;100.00;93867.88;2102602;28;20373;-80
2022/07/13 01:28:25;;;;;;;3.83;1.73;;;;;;;9.99;100.00;93864.88;2090208;28;20020;-80
2022/07/13 01:29:27;;;;;;;1.92;1.50;;;;;;;9.95;100.00;93869.47;2096083;28;20541;-81
2022/07/13 01:30:28;;;;;;;2.30;1.20;;;;;;;9.99;100.00;93862.19;2103527;28;20065;-80
2022/07/13 01:31:37;;;;;;;1.23;1.13;;;;;;;10.00;100.00;93861.78;2103208;28;20088;-80
2022/07/13 01:32:48;;;;;;;2.42;1.52;;;;;;;10.00;100.00;93861.03;2085810;28;20041;-80
2022/07/13 01:33:49;;;;;;;2.72;1.80;;;;;;;10.00;100.00;93871.72;2097266;28;20024;-80
2022/07/13 01:34:50;;;;;;;2.00;1.40;;;;;;;10.00;100.00;93861.78;2105637;28;20066;-80
2022/07/13 01:35:51;;;;;;;3.60;1.30;;;;;;;9.97;100.00;93862.59;2113577;28;20047;-81
2022/07/13 01:36:52;;;;;;;1.60;1.45;;;;;;;9.97;100.00;93861.84;2097561;28;20025;-80
2022/07/13 01:37:54;;;;;;;2.08;1.55;;;;;;;10.00;100.00;93866.38;2104371;28;20051;-81
2022/07/13 01:38:58;;;;;;;2.50;1.50;;;;;;;9.94;100.00;93866.03;2105179;28;20243;-80
2022/07/13 01:39:59;;;;;;;2.20;1.60;;;;;;;9.89;100.00;93855.78;2112719;28;20015;-80
2022/07/13 01:41:02;;;;;;;2.78;1.60;;;;;;;9.91;100.00;93866.06;2103725;28;20020;-80
2022/07/13 01:42:03;;;;;;;2.47;1.70;;;;;;;9.96;100.00;93861.06;2110924;28;20028;-80
2022/07/13 01:43:04;;;;;;;5.32;1.38;;;;;;;9.96;100.00;93860.28;2109552;28;20376;-81
2022/07/13 01:44:05;;;;;;;1.63;1.30;;;;;;;9.96;100.00;93862.97;2101380;28;20489;-80
2022/07/13 01:45:08;;;;;;;5.20;1.50;;;;;;;9.93;100.00;93859.19;2099573;28;20073;-80
2022/07/13 01:46:10;;;;;;;2.40;1.42;;;;;;;9.95;100.00;93859.53;2105644;28;20024;-80
2022/07/13 01:47:11;;;;;;;5.13;1.70;;;;;;;9.87;100.00;93866.09;2111943;28;20024;-80
2022/07/13 01:48:12;;;;;;;2.58;1.50;;;;;;;9.84;100.00;93856.97;2107185;28;21260;-80
2022/07/13 01:49:21;;;;;;;2.28;1.50;;;;;;;9.88;100.00;93856.16;2095150;28;20037;-80
2022/07/13 01:50:23;;;;;;;2.08;1.42;;;;;;;9.85;100.00;93863.06;2089722;28;20128;-80
2022/07/13 01:51:24;;;;;;;5.22;1.88;;;;;;;9.78;100.00;93861.19;2097092;28;20431;-80
2022/07/13 01:52:25;;;;;;;1.30;1.20;;;;;;;9.78;100.00;93861.19;2106306;28;20141;-80
2022/07/13 01:53:26;;;;;;;1.95;1.42;;;;;;;9.86;100.00;93856.56;2103428;28;20019;-80
2022/07/13 01:54:27;;;;;;;3.53;1.48;;;;;;;9.83;100.00;93858.13;2104715;28;20091;-81
2022/07/13 01:55:28;;;;;;;2.95;1.35;;;;;;;9.73;100.00;93855.50;2092043;28;20115;-80
2022/07/13 01:56:29;;;;;;;1.33;1.20;;;;;;;9.80;100.00;93850.88;2097188;28;20073;-79
2022/07/13 01:57:30;;;;;;;1.85;1.20;;;;;;;9.83;100.00;93849.31;2100739;28;20032;-80
2022/07/13 01:58:31;;;;;;;1.48;1.33;;;;;;;9.83;100.00;93847.44;2099514;28;20501;-79
2022/07/13 01:59:32;;;;;;;5.40;1.60;;;;;;;9.82;100.00;93843.22;2094111;28;20066;-79
2022/07/13 02:00:33;;;;;;;2.20;1.50;;;;;;;9.78;100.00;93842.50;2088485;28;20119;-80
2022/07/13 02:01:34;;;;;;;2.83;1.20;;;;;;;9.65;100.00;93843.34;2096705;28;20035;-80
2022/07/13 02:02:35;;;;;;;4.25;1.50;;;;;;;9.64;100.00;93839.16;2094147;28;20037;-80
2022/07/13 02:03:36;;;;;;;1.80;1.42;;;;;;;9.55;100.00;93844.94;2088131;28;20565;-80
2022/07/13 02:04:37;;;;;;;3.67;1.50;;;;;;;9.69;100.00;93841.41;2084604;28;20025;-80
2022/07/13 02:05:39;;;;;;;3.05;1.60;;;;;;;9.71;100.00;93833.78;2083444;28;20021;-80
2022/07/13 02:06:40;;;;;;;3.08;1.58;;;;;;;9.76;100.00;93839.47;2094489;28;20035;-80
2022/07/13 02:07:41;;;;;;;3.15;1.40;;;;;;;9.79;100.00;93841.38;2092157;28;20048;-80
2022/07/13 02:08:42;;;;;;;2.58;1.42;;;;;;;9.74;100.00;93843.66;2087762;28;20021;-80
2022/07/13 02:09:43;;;;;;;3.10;1.75;;;;;;;9.55;100.00;93837.69;2089986;28;20044;-80
2022/07/13 02:10:44;;;;;;;2.50;1.80;;;;;;;9.64;100.00;93841.84;2088459;28;20116;-81
2022/07/13 02:11:45;;;;;;;3.95;1.50;;;;;;;9.55;100.00;93843.03;2095995;28;20684;-80
2022/07/13 02:13:13;;;;;;;2.45;1.23;;;;;;;9.47;100.00;93838.88;2107187;28;20126;-80
2022/07/13 02:14:13;;;;;;;4.70;1.63;;;;;;;9.52;100.00;93843.81;2102817;28;20617;-80
2022/07/13 02:15:14;;;;;;;3.63;1.80;;;;;;;9.48;100.00;93835.09;2097024;28;20029;-80
2022/07/13 02:16:16;;;;;;;2.40;1.48;;;;;;;9.47;100.00;93836.22;2109538;28;20081;-80
2022/07/13 02:17:17;;;;;;;2.45;1.50;;;;;;;9.55;100.00;93827.00;2102709;28;20491;-79
2022/07/13 02:18:18;;;;;;;2.28;1.52;;;;;;;9.57;100.00;93829.31;2104844;28;20012;-80
2022/07/13 02:19:21;;;;;;;2.08;1.50;;;;;;;9.47;100.00;93822.13;2100681;28;20035;-80
2022/07/13 02:20:23;;;;;;;2.80;1.42;;;;;;;9.39;100.00;93829.38;2095870;28;20028;-80
2022/07/13 02:21:24;;;;;;;3.13;1.70;;;;;;;9.38;100.00;93827.88;2104223;28;20086;-80
2022/07/13 02:22:25;;;;;;;2.92;1.50;;;;;;;9.32;100.00;93830.22;2097028;28;20032;-80
2022/07/13 02:23:26;;;;;;;2.83;1.77;;;;;;;9.36;100.00;93827.53;2098106;28;20469;-80
2022/07/13 02:24:27;;;;;;;3.83;1.60;;;;;;;9.32;100.00;93822.19;2108431;28;20020;-80
2022/07/13 02:25:28;;;;;;;2.05;1.80;;;;;;;9.42;100.00;93830.53;2107089;28;20525;-80
2022/07/13 02:26:29;;;;;;;3.90;1.85;;;;;;;9.34;100.00;93819.88;2103183;28;20028;-81
2022/07/13 02:27:30;;;;;;;2.88;1.58;;;;;;;9.37;100.00;93830.94;2105409;28;20529;-80
2022/07/13 02:28:32;;;;;;;1.83;1.45;;;;;;;9.35;100.00;93823.34;2086136;28;20748;-80
2022/07/13 02:29:33;;;;;;;4.78;1.50;;;;;;;9.45;100.00;93833.19;2105173;28;20016;-80
2022/07/13 02:30:34;;;;;;;2.47;1.60;;;;;;;9.43;100.00;93830.13;2095534;28;20023;-80
2022/07/13 02:31:35;;;;;;;1.85;1.50;;;;;;;9.53;100.00;93828.56;2093796;28;20502;-80
2022/07/13 02:32:36;;;;;;;1.70;1.60;;;;;;;9.46;100.00;93824.03;2103938;28;20037;-80
2022/07/13 02:33:37;;;;;;;2.85;2.00;;;;;;;9.47;100.00;93828.22;2103077;28;20041;-81
2022/07/13 02:34:38;;;;;;;3.75;1.60;;;;;;;9.29;100.00;93822.22;2096950;28;20020;-80
2022/07/13 02:35:39;;;;;;;5.63;1.75;;;;;;;9.29;100.00;93840.88;2087948;28;20067;-80
2022/07/13 02:36:40;;;;;;;2.58;1.63;;;;;;;9.28;100.00;93828.72;2094590;28;20032;-80
2022/07/13 02:37:41;;;;;;;3.28;1.70;;;;;;;9.26;100.00;93831.78;2097111;28;20025;-80
2022/07/13 02:38:42;;;;;;;2.95;1.55;;;;;;;9.19;100.00;93831.78;2103026;28;20689;-80
2022/07/13 02:39:43;;;;;;;2.17;1.63;;;;;;;9.25;100.00;93830.22;2108908;28;20024;-80
2022/07/13 02:40:44;;;;;;;1.90;1.45;;;;;;;9.30;100.00;93827.16;2094823;28;20016;-80
2022/07/13 02:41:46;;;;;;;3.45;1.65;;;;;;;9.18;100.00;93827.63;2091742;28;20056;-80
2022/07/13 02:42:48;;;;;;;3.80;1.50;;;;;;;9.12;100.00;93826.50;2096336;28;20024;-80
2022/07/13 02:43:48;;;;;;;2.72;1.58;;;;;;;9.24;100.00;93823.38;2096107;28;20021;-80
2022/07/13 02:44:51;;;;;;;1.90;1.60;;;;;;;9.18;100.00;93827.63;2113337;28;20525;-80
2022/07/13 02:45:51;;;;;;;4.85;1.48;;;;;;;9.11;100.00;93819.66;2100770;28;20031;-80
2022/07/13 02:46:52;;;;;;;1.52;1.40;;;;;;;9.19;100.00;93826.47;2085663;28;20389;-80
2022/07/13 02:47:53;;;;;;;1.92;1.42;;;;;;;9.21;100.00;93824.16;2085796;28;20025;-80
2022/07/13 02:48:55;;;;;;;2.08;1.40;;;;;;;9.13;100.00;93828.03;2095465;28;20032;-80
2022/07/13 02:49:56;;;;;;;2.33;1.58;;;;;;;9.13;100.00;93819.25;2100681;28;20025;-80
2022/07/13 02:50:57;;;;;;;1.80;1.70;;;;;;;9.12;100.00;93815.06;2096445;28;20031;-80
2022/07/13 02:51:58;;;;;;;1.75;1.60;;;;;;;9.21;100.00;93820.72;2097273;28;20120;-80
2022/07/13 02:52:59;;;;;;;2.10;1.70;;;;;;;9.26;100.00;93821.09;2098364;28;20493;-80
2022/07/13 02:54:00;;;;;;;2.17;1.20;;;;;;;9.18;100.00;93816.94;2093032;28;20033;-80
2022/07/13 02:55:01;;;;;;;2.05;1.60;;;;;;;9.20;100.00;93819.22;2102342;28;20056;-80
2022/07/13 02:56:05;;;;;;;3.10;1.35;;;;;;;9.24;100.00;93817.28;2093280;28;20078;-80
2022/07/13 02:57:06;;;;;;;3.25;1.80;;;;;;;9.16;100.00;93819.22;2090816;28;20025;-80
2022/07/13 02:58:07;;;;;;;3.55;1.65;;;;;;;9.23;100.00;93811.19;2085296;28;20121;-80
2022/07/13 02:59:08;;;;;;;2.63;1.40;;;;;;;9.23;100.00;93813.88;2093470;28;20469;-80
2022/07/13 03:00:10;;;;;;;3.47;1.40;;;;;;;9.09;100.00;93813.94;2105181;28;20035;-80
2022/07/13 03:01:11;;;;;;;2.67;1.48;;;;;;;9.20;100.00;93805.88;2096854;28;20491;-80
2022/07/13 03:02:12;;;;;;;3.90;1.45;;;;;;;9.26;100.00;93812.31;2099169;28;20154;-80
2022/07/13 03:03:13;;;;;;;1.70;1.58;;;;;;;9.23;100.00;93811.19;2097035;28;20032;-80
2022/07/13 03:04:14;;;;;;;2.67;1.20;;;;;;;9.25;100.00;93803.56;2096900;28;20021;-80
2022/07/13 03:05:15;;;;;;;3.58;1.90;;;;;;;9.23;100.00;93811.19;2092118;28;20012;-80
2022/07/13 03:06:16;;;;;;;2.30;1.55;;;;;;;9.22;100.00;93808.91;2104829;28;20051;-80
2022/07/13 03:07:17;;;;;;;3.78;1.92;;;;;;;9.21;100.00;93805.47;2105246;28;20684;-80
2022/07/13 03:08:18;;;;;;;3.05;1.55;;;;;;;9.12;100.00;93802.50;2098717;28;20021;-80
2022/07/13 03:09:19;;;;;;;4.07;1.42;;;;;;;9.09;100.00;93813.94;2100806;28;20089;-80
2022/07/13 03:10:20;;;;;;;3.97;1.70;;;;;;;9.07;100.00;93805.56;2103876;28;20024;-80
2022/07/13 03:11:21;;;;;;;2.47;1.52;;;;;;;9.21;100.00;93800.16;2096573;28;20217;-80
2022/07/13 03:12:22;;;;;;;2.47;1.40;;;;;;;9.28;100.00;93807.38;2105335;28;20024;-80
2022/07/13 03:13:23;;;;;;;3.03;1.45;;;;;;;9.31;100.00;93806.59;2096930;28;20704;-80
2022/07/13 03:14:24;;;;;;;2.85;1.65;;;;;;;9.21;100.00;93810.06;2088547;28;20091;-80
2022/07/13 03:15:25;;;;;;;2.70;1.50;;;;;;;9.21;100.00;93807.41;2088333;28;20028;-80
2022/07/13 03:16:26;;;;;;;3.22;1.65;;;;;;;9.22;100.00;93803.56;2096129;28;20048;-80
2022/07/13 03:17:27;;;;;;;2.03;1.63;;;;;;;9.14;100.00;93805.53;2108632;28;20023;-80
2022/07/13 03:18:28;;;;;;;3.15;1.85;;;;;;;9.16;100.00;93800.56;2103387;28;20016;-81
2022/07/13 03:19:30;;;;;;;3.47;1.65;;;;;;;9.11;100.00;93803.63;2106766;28;20518;-80
2022/07/13 03:20:31;;;;;;;2.80;1.70;;;;;;;9.13;100.00;93795.25;2106044;28;20428;-80
2022/07/13 03:21:32;;;;;;;1.73;1.52;;;;;;;9.10;100.00;93806.72;2106498;28;20032;-80
2022/07/13 03:22:33;;;;;;;2.85;1.50;;;;;;;9.17;100.00;93794.06;2099479;28;20040;-81
2022/07/13 03:23:34;;;;;;;2.40;1.70;;;;;;;9.03;100.00;93797.56;2091990;28;20031;-80
2022/07/13 03:24:35;;;;;;;3.20;1.58;;;;;;;9.10;100.00;93801.38;2090184;28;20075;-80
2022/07/13 03:25:36;;;;;;;2.53;1.60;;;;;;;9.21;100.00;93792.16;2086302;28;20037;-80
2022/07/13 03:26:37;;;;;;;2.22;1.50;;;;;;;9.02;100.00;93801.41;2101589;28;20032;-81
2022/07/13 03:27:38;;;;;;;1.50;1.40;;;;;;;8.99;100.00;93798.75;2101623;28;20023;-80
2022/07/13 03:28:39;;;;;;;2.85;1.50;;;;;;;9.03;100.00;93797.56;2098578;28;20059;-80
2022/07/13 03:29:40;;;;;;;3.05;1.80;;;;;;;9.07;100.00;93797.56;2104269;28;20110;-80
2022/07/13 03:30:41;;;;;;;2.38;1.60;;;;;;;9.13;100.00;93787.25;2090144;28;20025;-80
2022/07/13 03:31:42;;;;;;;2.13;1.50;;;;;;;9.07;100.00;93795.66;2098261;28;20029;-80
2022/07/13 03:32:43;;;;;;;1.88;1.33;;;;;;;8.85;100.00;93796.91;2108319;28;20027;-80
2022/07/13 03:33:44;;;;;;;2.85;1.42;;;;;;;8.94;100.00;93791.16;2105189;28;20495;-80
2022/07/13 03:34:45;;;;;;;3.22;1.75;;;;;;;8.95;100.00;93795.34;2098155;28;20358;-80
2022/07/13 03:35:46;;;;;;;2.40;1.70;;;;;;;8.98;100.00;93794.56;2085988;28;20041;-80
2022/07/13 03:36:47;;;;;;;2.13;1.45;;;;;;;8.86;100.00;93797.66;2090051;28;20401;-80
2022/07/13 03:37:48;;;;;;;1.88;1.60;;;;;;;8.91;100.00;93792.69;2098368;28;20024;-80
2022/07/13 03:38:49;;;;;;;3.50;1.50;;;;;;;9.01;100.00;93799.13;2114412;28;20548;-80
2022/07/13 03:39:50;;;;;;;3.40;1.67;;;;;;;9.00;100.00;93792.25;2109818;27;20024;-80
2022/07/13 03:40:51;;;;;;;2.65;1.65;;;;;;;8.92;100.00;93804.13;2114902;28;20164;-80
2022/07/13 03:41:52;;;;;;;2.78;1.67;;;;;;;8.93;100.00;93794.97;2106231;28;20111;-80
2022/07/13 03:42:53;;;;;;;2.10;1.80;;;;;;;8.95;100.00;93790.00;2106656;28;20020;-80
2022/07/13 03:43:54;;;;;;;6.68;2.45;;;;;;;9.05;100.00;93792.63;2092416;28;20028;-80
2022/07/13 03:44:55;;;;;;;2.30;1.60;;;;;;;9.13;100.00;93785.34;2089395;28;20067;-80
2022/07/13 03:45:56;;;;;;;2.97;1.95;;;;;;;9.17;100.00;93790.66;2089853;28;20056;-80
2022/07/13 03:46:58;;;;;;;3.72;1.85;;;;;;;9.16;100.00;93778.47;2099238;28;20025;-80
2022/07/13 03:47:59;;;;;;;4.00;1.95;;;;;;;9.17;100.00;93783.41;2098418;28;20033;-80
2022/07/13 03:49:00;;;;;;;5.03;1.75;;;;;;;9.04;100.00;93799.13;2090019;28;20021;-81
2022/07/13 03:50:01;;;;;;;4.80;2.72;;;;;;;9.02;100.00;93796.06;2091082;28;20028;-80
2022/07/13 03:51:03;;;;;;;4.60;1.52;;;;;;;9.10;100.00;93788.03;2090352;28;20056;-80
2022/07/13 03:52:04;;;;;;;2.60;1.80;;;;;;;8.95;100.00;93793.41;2084236;28;20021;-81
2022/07/13 03:53:07;;;;;;;4.63;1.65;;;;;;;9.03;100.00;93797.56;2092101;28;20078;-80
2022/07/13 03:54:08;;;;;;;2.95;1.75;;;;;;;9.07;100.00;93798.31;2104359;28;20020;-80
2022/07/13 03:55:10;;;;;;;3.60;1.98;;;;;;;9.13;100.00;93801.34;2090910;28;20473;-80
2022/07/13 03:56:10;;;;;;;2.15;1.40;;;;;;;8.95;100.00;93798.00;2087270;28;20033;-80
2022/07/13 03:57:11;;;;;;;2.10;1.35;;;;;;;8.86;100.00;93797.66;2089368;28;20547;-80
2022/07/13 03:58:13;;;;;;;1.52;1.38;;;;;;;8.94;100.00;93794.56;2087013;28;20501;-80
2022/07/13 03:59:14;;;;;;;2.13;1.40;;;;;;;9.00;100.00;93797.59;2096406;28;20020;-80
2022/07/13 04:00:14;;;;;;;1.40;1.30;;;;;;;9.02;100.00;93796.06;2095459;28;20564;-80
2022/07/13 04:01:18;;;;;;;3.38;1.50;;;;;;;8.96;100.00;93788.88;2097030;28;20035;-80
2022/07/13 04:02:19;;;;;;;5.47;1.63;;;;;;;8.95;100.00;93790.75;2103734;28;20031;-80
2022/07/13 04:03:20;;;;;;;6.78;1.50;;;;;;;8.98;100.00;93797.22;2098156;28;20505;-80
2022/07/13 04:04:21;;;;;;;3.65;1.40;;;;;;;9.04;100.00;93798.34;2103229;28;20020;-81
2022/07/13 04:05:22;;;;;;;3.03;1.63;;;;;;;9.04;100.00;93795.66;2093521;28;20021;-80
2022/07/13 04:06:22;;;;;;;5.65;1.70;;;;;;;9.03;100.00;93800.25;2089767;28;20021;-80
2022/07/13 04:07:23;;;;;;;2.33;1.30;;;;;;;8.93;100.00;93802.97;2086937;28;20028;-80
2022/07/13 04:08:24;;;;;;;2.58;1.67;;;;;;;8.98;100.00;93797.97;2089883;28;20108;-80
2022/07/13 04:09:25;;;;;;;5.75;1.80;;;;;;;9.01;100.00;93797.22;2089742;28;20086;-80
2022/07/13 04:10:26;;;;;;;2.60;1.35;;;;;;;8.97;100.00;93799.13;2104163;28;20028;-80
2022/07/13 04:11:27;;;;;;;3.80;1.50;;;;;;;9.03;100.00;93784.25;2113734;28;20016;-81
2022/07/13 04:12:28;;;;;;;7.10;1.70;;;;;;;9.03;100.00;93781.56;2103686;28;21576;-80
2022/07/13 04:13:29;;;;;;;2.15;1.38;;;;;;;9.06;100.00;93793.38;2097182;28;20020;-80
2022/07/13 04:14:30;;;;;;;2.00;1.50;;;;;;;9.11;100.00;93781.56;2111124;28;20071;-80
2022/07/13 04:15:31;;;;;;;2.17;1.50;;;;;;;9.07;100.00;93782.31;2097856;28;20033;-80
2022/07/13 04:16:32;;;;;;;1.73;1.50;;;;;;;9.14;100.00;93789.53;2099128;28;20020;-81
2022/07/13 04:17:33;;;;;;;2.63;1.50;;;;;;;9.09;100.00;93779.28;2109006;28;20086;-80
2022/07/13 04:18:34;;;;;;;2.75;1.80;;;;;;;9.15;100.00;93775.03;2108050;28;20147;-81
2022/07/13 04:19:35;;;;;;;3.05;1.42;;;;;;;9.20;100.00;93789.88;2102305;28;20023;-80
2022/07/13 04:20:36;;;;;;;2.10;1.60;;;;;;;9.24;100.00;93780.72;2097865;28;20024;-81
2022/07/13 04:21:37;;;;;;;5.05;1.60;;;;;;;9.24;100.00;93779.94;2104176;28;20031;-81
2022/07/13 04:22:38;;;;;;;3.25;1.60;;;;;;;9.29;100.00;93788.28;2104612;28;20062;-80
2022/07/13 04:23:40;;;;;;;2.72;1.80;;;;;;;9.31;100.00;93785.25;2097894;28;20020;-80
2022/07/13 04:24:41;;;;;;;3.75;1.90;;;;;;;9.33;100.00;93783.69;2090465;28;20116;-81
2022/07/13 04:25:42;;;;;;;2.80;1.70;;;;;;;9.29;100.00;93792.88;2089593;28;20028;-80
2022/07/13 04:26:42;;;;;;;3.95;1.70;;;;;;;9.33;100.00;93783.69;2097105;28;21461;-80
2022/07/13 04:27:43;;;;;;;4.30;1.65;;;;;;;9.32;100.00;93779.53;2089737;28;20032;-80
2022/07/13 04:28:44;;;;;;;7.80;1.73;;;;;;;9.36;100.00;93782.16;2095942;28;20024;-80
2022/07/13 04:29:46;;;;;;;3.22;1.75;;;;;;;9.38;100.00;93782.53;2098915;28;20546;-80
2022/07/13 04:30:47;;;;;;;5.03;1.90;;;;;;;9.39;100.00;93783.28;2092239;28;20063;-79
2022/07/13 04:31:49;;;;;;;6.88;2.30;;;;;;;9.32;100.00;93792.09;2100042;28;20737;-80
2022/07/13 04:32:50;;;;;;;3.47;1.95;;;;;;;9.29;100.00;93787.53;2098160;28;20024;-79
2022/07/13 04:33:51;;;;;;;4.05;1.73;;;;;;;9.37;100.00;93788.25;2106585;28;20409;-79
2022/07/13 04:34:52;;;;;;;4.68;2.28;;;;;;;9.41;100.00;93784.41;2106064;28;20031;-80
2022/07/13 04:35:53;;;;;;;4.55;2.17;;;;;;;9.46;100.00;93784.00;2108681;28;20020;-80
2022/07/13 04:36:55;;;;;;;4.57;1.80;;;;;;;9.50;100.00;93786.66;2106114;28;20115;-80
2022/07/13 04:37:56;;;;;;;3.95;1.92;;;;;;;9.46;100.00;93777.91;2105878;28;20020;-80
2022/07/13 04:38:57;;;;;;;2.95;1.77;;;;;;;9.53;100.00;93786.63;2105898;28;20031;-80
2022/07/13 04:39:58;;;;;;;5.63;1.90;;;;;;;9.59;100.00;93776.28;2104314;28;20502;-80
2022/07/13 04:40:59;;;;;;;6.07;2.30;;;;;;;9.62;100.00;93786.19;2098896;28;20035;-80
2022/07/13 04:42:00;;;;;;;3.42;1.88;;;;;;;9.67;100.00;93793.00;2099052;28;20024;-80
2022/07/13 04:43:01;;;;;;;3.80;1.90;;;;;;;9.64;100.00;93783.88;2101837;28;20059;-80
2022/07/13 04:44:02;;;;;;;4.88;2.17;;;;;;;9.70;100.00;93778.88;2099440;28;20069;-80
2022/07/13 04:45:03;;;;;;;5.28;2.38;;;;;;;9.75;100.00;93783.81;2095966;28;20713;-80
2022/07/13 04:46:04;;;;;;;4.93;2.50;;;;;;;9.76;100.00;93782.66;2089511;28;20116;-80
2022/07/13 04:47:05;;;;;;;8.75;2.78;;;;;;;9.83;100.00;93779.91;2094591;28;20027;-80
2022/07/13 04:48:06;;;;;;;4.32;2.05;;;;;;;9.92;100.00;93780.22;2106156;28;20032;-80
2022/07/13 04:49:07;;;;;;;8.30;2.50;;;;;;;9.99;100.00;93774.06;2112132;28;20085;-81